createdAt,value
2022-11-03T00:01:36.358Z,7.37
2022-11-03T00:04:06.530Z,7.46
2022-11-03T00:06:33.570Z,7.31
2022-11-03T00:09:02.999Z,7.27
2022-11-03T00:11:29.542Z,7.17
2022-11-03T00:13:56.999Z,7.08
2022-11-03T00:16:24.016Z,6.98
2022-11-03T00:18:51.708Z,6.97
2022-11-03T00:21:18.232Z,6.98
2022-11-03T00:23:44.990Z,6.95
2022-11-03T00:26:18.929Z,6.90
2022-11-03T00:28:46.973Z,6.90
2022-11-03T00:31:15.332Z,6.86
2022-11-03T00:33:42.974Z,6.71
2022-11-03T00:36:15.610Z,6.63
2022-11-03T00:38:43.223Z,6.65
2022-11-03T00:41:10.244Z,6.56
2022-11-03T00:43:37.117Z,6.59
2022-11-03T00:46:07.831Z,6.52
2022-11-03T00:48:36.174Z,6.48
2022-11-03T00:51:08.623Z,6.46
2022-11-03T00:53:40.360Z,6.40
2022-11-03T00:56:09.573Z,6.37
2022-11-03T00:58:36.173Z,6.39
2022-11-03T01:01:05.814Z,6.26
2022-11-03T01:03:33.839Z,6.27
2022-11-03T01:06:19.669Z,6.23
2022-11-03T01:08:46.798Z,6.24
2022-11-03T01:11:34.658Z,6.17
2022-11-03T01:14:01.450Z,6.18
2022-11-03T01:16:29.375Z,6.22
2022-11-03T01:18:55.858Z,6.21
2022-11-03T01:21:22.660Z,6.19
2022-11-03T01:23:49.269Z,6.12
2022-11-03T01:26:16.137Z,6.21
2022-11-03T01:28:46.695Z,6.11
2022-11-03T01:31:18.189Z,6.07
2022-11-03T01:33:47.800Z,6.04
2022-11-03T01:36:15.318Z,5.97
2022-11-03T01:38:42.263Z,6.03
2022-11-03T01:41:11.609Z,5.96
2022-11-03T01:43:39.483Z,5.93
2022-11-03T01:46:27.357Z,5.92
2022-11-03T01:49:07.286Z,5.86
2022-11-03T01:51:34.945Z,5.87
2022-11-03T01:54:05.803Z,5.86
2022-11-03T01:56:34.612Z,5.83
2022-11-03T01:59:01.604Z,5.79
2022-11-03T02:01:28.459Z,5.77
2022-11-03T02:04:00.140Z,5.81
2022-11-03T02:06:27.996Z,5.87
2022-11-03T02:09:05.745Z,5.86
2022-11-03T02:11:54.140Z,5.69
2022-11-03T02:14:20.668Z,5.68
2022-11-03T02:16:53.986Z,5.68
2022-11-03T02:19:34.511Z,5.61
2022-11-03T02:22:30.543Z,5.62
2022-11-03T02:25:07.183Z,5.46
2022-11-03T02:27:34.925Z,5.40
2022-11-03T02:30:01.412Z,5.39
2022-11-03T02:32:42.242Z,5.37
2022-11-03T02:35:25.567Z,5.26
2022-11-03T02:37:55.152Z,5.29
2022-11-03T02:40:34.587Z,5.25
2022-11-03T02:43:02.189Z,5.27
2022-11-03T02:45:28.784Z,5.19
2022-11-03T02:47:58.819Z,5.19
2022-11-03T02:50:29.851Z,5.17
2022-11-03T02:52:56.805Z,5.20
2022-11-03T02:55:41.292Z,5.21
2022-11-03T02:58:13.882Z,5.22
2022-11-03T03:00:54.402Z,5.19
2022-11-03T03:03:29.355Z,5.18
2022-11-03T03:06:03.621Z,5.11
2022-11-03T03:08:30.532Z,5.09
2022-11-03T03:11:00.124Z,5.06
2022-11-03T03:13:27.245Z,5.08
2022-11-03T03:16:06.084Z,5.08
2022-11-03T03:18:48.982Z,5.01
2022-11-03T03:21:21.557Z,4.97
2022-11-03T03:23:52.106Z,5.00
2022-11-03T03:26:24.312Z,5.03
2022-11-03T03:28:54.592Z,5.01
2022-11-03T03:31:22.300Z,4.97
2022-11-03T03:33:53.278Z,5.04
2022-11-03T03:36:25.622Z,4.99
2022-11-03T03:38:57.360Z,5.01
2022-11-03T03:41:25.656Z,5.01
2022-11-03T03:43:57.429Z,4.99
2022-11-03T03:46:27.199Z,4.95
2022-11-03T03:48:53.661Z,5.01
2022-11-03T03:51:23.853Z,4.90
2022-11-03T03:53:55.090Z,4.97
2022-11-03T03:56:27.394Z,4.89
2022-11-03T03:58:54.102Z,4.84
2022-11-03T04:01:20.633Z,4.87
2022-11-03T04:03:47.134Z,4.92
2022-11-03T04:06:13.729Z,4.83
2022-11-03T04:08:40.144Z,4.86
2022-11-03T04:11:26.774Z,4.81
2022-11-03T04:14:26.293Z,4.75
2022-11-03T04:17:11.334Z,4.63
2022-11-03T04:19:56.439Z,4.70
2022-11-03T04:22:25.550Z,4.63
2022-11-03T04:24:52.561Z,4.66
2022-11-03T04:27:27.042Z,4.68
2022-11-03T04:29:57.319Z,4.67
2022-11-03T04:32:23.805Z,4.61
2022-11-03T04:34:50.207Z,4.51
2022-11-03T04:37:17.166Z,4.63
2022-11-03T04:42:22.298Z,4.55
2022-11-03T04:44:49.367Z,4.60
2022-11-03T04:47:17.101Z,4.53
2022-11-03T04:49:44.752Z,4.55
2022-11-03T04:52:20.183Z,4.63
2022-11-03T04:54:48.531Z,4.71
2022-11-03T04:57:16.637Z,4.66
2022-11-03T04:59:45.347Z,4.55
2022-11-03T05:02:14.385Z,4.63
2022-11-03T05:04:41.815Z,4.73
2022-11-03T05:07:21.935Z,4.78
2022-11-03T05:09:48.888Z,4.84
2022-11-03T05:12:15.516Z,4.80
2022-11-03T05:14:42.042Z,4.61
2022-11-03T05:17:28.229Z,4.63
2022-11-03T05:20:02.136Z,4.67
2022-11-03T05:22:32.045Z,4.70
2022-11-03T05:25:03.876Z,4.74
2022-11-03T05:27:30.485Z,4.68
2022-11-03T05:30:00.787Z,4.74
2022-11-03T05:32:30.226Z,4.70
2022-11-03T05:34:56.951Z,4.79
2022-11-03T05:37:27.887Z,4.90
2022-11-03T05:40:15.150Z,4.84
2022-11-03T05:42:42.890Z,4.88
2022-11-03T05:45:16.388Z,5.04
2022-11-03T05:47:43.017Z,4.93
2022-11-03T05:50:19.716Z,4.95
2022-11-03T05:52:47.816Z,4.98
2022-11-03T05:55:28.538Z,5.07
2022-11-03T05:57:59.880Z,5.16
2022-11-03T06:00:37.585Z,5.10
2022-11-03T06:03:05.159Z,5.14
2022-11-03T06:05:33.601Z,5.15
2022-11-03T06:08:03.469Z,5.19
2022-11-03T06:10:34.365Z,5.21
2022-11-03T06:13:05.297Z,5.26
2022-11-03T06:15:34.709Z,5.27
2022-11-03T06:18:03.073Z,5.29
2022-11-03T06:20:29.542Z,5.20
2022-11-03T06:22:57.209Z,5.33
2022-11-03T06:25:32.638Z,5.21
2022-11-03T06:28:05.324Z,5.11
2022-11-03T06:30:34.083Z,5.18
2022-11-03T06:33:06.704Z,5.14
2022-11-03T06:35:34.961Z,5.02
2022-11-03T06:38:01.606Z,4.91
2022-11-03T06:40:34.883Z,4.84
2022-11-03T06:43:17.091Z,4.83
2022-11-03T06:45:50.004Z,4.84
2022-11-03T06:48:22.396Z,4.88
2022-11-03T06:50:48.887Z,4.91
2022-11-03T06:53:21.790Z,4.90
2022-11-03T06:55:48.949Z,4.92
2022-11-03T06:58:19.369Z,4.99
2022-11-03T07:00:50.951Z,5.02
2022-11-03T07:03:24.256Z,5.12
2022-11-03T07:05:51.344Z,5.18
2022-11-03T07:08:22.640Z,5.31
2022-11-03T07:11:01.106Z,5.40
2022-11-03T07:13:28.540Z,5.42
2022-11-03T07:15:55.035Z,5.55
2022-11-03T07:18:28.758Z,5.59
2022-11-03T07:20:55.992Z,5.62
2022-11-03T07:23:29.111Z,5.73
2022-11-03T07:26:00.159Z,5.77
2022-11-03T07:28:36.656Z,5.84
2022-11-03T07:31:16.262Z,5.99
2022-11-03T07:33:44.048Z,6.05
2022-11-03T07:36:16.977Z,6.29
2022-11-03T07:38:46.291Z,6.12
2022-11-03T07:41:18.936Z,6.23
2022-11-03T07:43:52.701Z,6.17
2022-11-03T07:46:20.836Z,6.41
2022-11-03T07:48:49.193Z,6.56
2022-11-03T07:51:48.563Z,6.61
2022-11-03T07:54:25.847Z,6.80
2022-11-03T07:57:03.067Z,7.06
2022-11-03T07:59:42.533Z,8.07
2022-11-03T08:02:28.190Z,9.95
2022-11-03T08:04:54.938Z,13.34
2022-11-03T08:07:21.592Z,15.50
2022-11-03T08:09:48.143Z,16.52
2022-11-03T08:12:14.877Z,19.25
2022-11-03T08:14:41.754Z,20.82
2022-11-03T08:17:08.744Z,22.88
2022-11-03T08:19:35.488Z,25.25
2022-11-03T08:22:02.253Z,24.08
2022-11-03T08:24:29.090Z,24.19
2022-11-03T08:26:55.645Z,22.87
2022-11-03T08:29:22.597Z,22.16
2022-11-03T08:31:49.357Z,22.99
2022-11-03T08:34:16.005Z,23.49
2022-11-03T08:36:42.697Z,24.00
2022-11-03T08:39:09.297Z,22.74
2022-11-03T08:41:36.225Z,21.91
2022-11-03T08:44:03.058Z,20.65
2022-11-03T08:46:29.734Z,23.72
2022-11-03T08:48:56.299Z,24.26
2022-11-03T08:51:22.742Z,22.77
2022-11-03T08:53:53.961Z,22.39
2022-11-03T08:56:22.613Z,22.74
2022-11-03T08:58:49.660Z,23.28
2022-11-03T09:01:16.271Z,21.87
2022-11-03T09:03:43.336Z,21.40
2022-11-03T09:06:10.142Z,20.32
2022-11-03T09:11:23.507Z,14.88
2022-11-03T09:13:51.342Z,13.62
2022-11-03T09:16:18.081Z,12.95
2022-11-03T09:18:45.726Z,12.45
2022-11-03T09:21:13.665Z,12.17
2022-11-03T09:23:40.570Z,12.52
2022-11-03T09:26:09.534Z,12.25
2022-11-03T09:28:36.017Z,12.21
2022-11-03T09:31:02.502Z,12.42
2022-11-03T09:33:29.427Z,12.32
2022-11-03T09:35:56.677Z,11.95
2022-11-03T09:38:23.285Z,12.22
2022-11-03T09:40:50.073Z,12.01
2022-11-03T09:43:17.062Z,11.78
2022-11-03T09:45:43.640Z,11.80
2022-11-03T09:48:10.893Z,12.06
2022-11-03T09:50:38.090Z,11.92
2022-11-03T09:53:05.442Z,12.11
2022-11-03T09:55:32.407Z,12.05
2022-11-03T09:58:01.895Z,12.33
2022-11-03T10:00:28.406Z,12.35
2022-11-03T10:02:55.718Z,12.75
2022-11-03T10:05:28.247Z,12.81
2022-11-03T10:07:59.962Z,12.76
2022-11-03T10:10:28.349Z,12.93
2022-11-03T10:12:55.296Z,12.87
2022-11-03T10:15:23.614Z,12.71
2022-11-03T10:17:50.719Z,12.48
2022-11-03T10:20:19.950Z,12.49
2022-11-03T10:22:47.598Z,12.39
2022-11-03T10:25:36.717Z,12.56
2022-11-03T10:28:20.588Z,12.65
2022-11-03T10:33:38.949Z,12.34
2022-11-03T10:36:23.195Z,12.73
2022-11-03T10:38:49.716Z,12.88
2022-11-03T10:41:21.669Z,12.68
2022-11-03T10:44:10.968Z,12.71
2022-11-03T10:46:54.788Z,12.76
2022-11-03T10:49:21.758Z,12.88
2022-11-03T10:51:53.395Z,12.97
2022-11-03T10:54:22.840Z,12.85
2022-11-03T10:56:50.872Z,12.85
2022-11-03T10:59:27.174Z,12.83
2022-11-03T11:01:54.149Z,13.16
2022-11-03T11:04:21.393Z,13.15
2022-11-03T11:06:48.459Z,12.93
2022-11-03T11:09:26.850Z,12.84
2022-11-03T11:12:10.379Z,13.15
2022-11-03T11:14:39.641Z,13.09
2022-11-03T11:17:06.681Z,12.94
2022-11-03T11:20:23.819Z,12.92
2022-11-03T11:22:51.049Z,12.98
2022-11-03T11:25:20.692Z,12.96
2022-11-03T11:27:47.348Z,12.95
2022-11-03T11:30:19.988Z,13.04
2022-11-03T11:32:46.611Z,12.98
2022-11-03T11:35:15.722Z,13.23
2022-11-03T11:37:42.719Z,13.29
2022-11-03T11:40:14.170Z,13.19
2022-11-03T11:43:07.278Z,13.03
2022-11-03T11:46:11.516Z,13.29
2022-11-03T11:48:39.525Z,13.51
2022-11-03T11:51:11.126Z,13.26
2022-11-03T11:53:39.477Z,13.16
2022-11-03T11:56:09.979Z,13.17
2022-11-03T11:58:42.503Z,12.83
2022-11-03T12:01:25.410Z,12.82
2022-11-03T12:03:54.944Z,12.88
2022-11-03T12:06:38.689Z,12.98
2022-11-03T12:09:27.861Z,13.03
2022-11-03T12:11:59.387Z,12.88
2022-11-03T12:14:37.516Z,12.65
2022-11-03T12:17:16.354Z,12.61
2022-11-03T12:19:47.839Z,12.83
2022-11-03T12:22:23.124Z,12.92
2022-11-03T12:25:04.304Z,13.03
2022-11-03T12:27:30.714Z,13.05
2022-11-03T12:29:59.541Z,12.85
2022-11-03T12:32:35.875Z,12.86
2022-11-03T12:35:08.141Z,12.72
2022-11-03T12:37:35.170Z,12.88
2022-11-03T12:40:01.638Z,12.93
2022-11-03T12:42:28.609Z,12.88
2022-11-03T12:44:55.888Z,12.80
2022-11-03T12:47:22.697Z,12.43
2022-11-03T12:49:49.661Z,12.53
2022-11-03T12:52:16.423Z,12.76
2022-11-03T12:54:43.082Z,13.20
2022-11-03T12:57:10.071Z,13.32
2022-11-03T12:59:36.890Z,13.54
2022-11-03T13:02:03.776Z,13.50
2022-11-03T13:04:30.431Z,13.58
2022-11-03T13:06:56.937Z,13.87
2022-11-03T13:09:23.589Z,13.97
2022-11-03T13:12:08.964Z,13.80
2022-11-03T13:14:35.552Z,13.76
2022-11-03T13:17:03.735Z,13.90
2022-11-03T13:19:30.251Z,13.84
2022-11-03T13:21:57.067Z,13.91
2022-11-03T13:24:23.510Z,13.93
2022-11-03T13:26:50.138Z,14.04
2022-11-03T13:29:16.604Z,13.99
2022-11-03T13:31:43.138Z,14.01
2022-11-03T13:34:09.668Z,14.00
2022-11-03T13:36:36.273Z,14.07
2022-11-03T13:39:02.782Z,13.99
2022-11-03T13:41:30.046Z,14.17
2022-11-03T13:43:56.784Z,14.40
2022-11-03T13:46:23.359Z,15.06
2022-11-03T13:49:40.918Z,15.36
2022-11-03T13:51:36.349Z,15.10
2022-11-03T13:59:35.763Z,13.89
2022-11-03T14:04:49.145Z,13.69
2022-11-03T14:07:15.763Z,13.59
2022-11-03T14:09:42.608Z,13.46
2022-11-03T14:12:28.032Z,13.28
2022-11-03T14:14:54.459Z,13.07
2022-11-03T14:17:20.907Z,13.13
2022-11-03T14:19:52.116Z,12.86
2022-11-03T14:22:23.622Z,12.81
2022-11-03T14:24:51.148Z,12.85
2022-11-03T14:27:18.646Z,12.79
2022-11-03T14:29:45.667Z,12.76
2022-11-03T14:32:12.518Z,12.70
2022-11-03T14:34:39.063Z,12.60
2022-11-03T14:37:06.055Z,12.52
2022-11-03T14:39:32.802Z,12.36
2022-11-03T14:42:05.330Z,12.21
2022-11-03T14:44:35.576Z,12.05
2022-11-03T14:47:03.472Z,11.89
2022-11-03T14:49:34.527Z,11.84
2022-11-03T14:52:02.430Z,11.73
2022-11-03T14:54:30.512Z,11.66
2022-11-03T14:56:57.654Z,11.60
2022-11-03T14:59:31.227Z,11.47
2022-11-03T15:01:58.828Z,11.25
2022-11-03T15:04:28.429Z,11.18
2022-11-03T15:06:55.668Z,11.01
2022-11-03T15:09:22.305Z,10.93
2022-11-03T15:11:49.371Z,10.88
2022-11-03T15:14:15.970Z,10.73
2022-11-03T15:16:43.990Z,10.61
2022-11-03T15:19:10.568Z,10.54
2022-11-03T15:21:37.115Z,10.40
2022-11-03T15:26:50.728Z,10.18
2022-11-03T15:29:17.308Z,10.10
2022-11-03T15:31:47.926Z,10.07
2022-11-03T15:34:15.423Z,9.89
2022-11-03T15:36:41.953Z,9.79
2022-11-03T15:39:08.560Z,9.85
2022-11-03T15:41:35.316Z,9.82
2022-11-03T15:44:01.862Z,9.86
2022-11-03T15:46:28.386Z,9.80
2022-11-03T15:48:56.518Z,9.66
2022-11-03T15:51:23.356Z,9.59
2022-11-03T15:53:54.957Z,9.58
2022-11-03T15:56:25.632Z,9.56
2022-11-03T15:58:52.026Z,9.36
2022-11-03T16:01:18.652Z,9.35
2022-11-03T16:03:45.604Z,9.32
2022-11-03T16:06:12.382Z,9.26
2022-11-03T16:08:38.867Z,9.20
2022-11-03T16:11:05.624Z,9.14
2022-11-03T16:13:32.099Z,8.93
2022-11-03T16:15:58.649Z,8.86
2022-11-03T16:18:27.454Z,8.91
2022-11-03T16:20:53.917Z,8.86
2022-11-03T16:23:20.354Z,8.78
2022-11-03T16:25:47.089Z,8.63
2022-11-03T16:28:13.693Z,8.63
2022-11-03T16:30:40.256Z,8.60
2022-11-03T16:33:07.734Z,8.58
2022-11-03T16:35:34.505Z,8.33
2022-11-03T16:38:01.328Z,8.22
2022-11-03T16:40:28.451Z,8.15
2022-11-03T16:42:54.900Z,8.26
2022-11-03T16:45:23.493Z,8.15
2022-11-03T16:47:51.344Z,8.20
2022-11-03T16:50:18.714Z,8.19
2022-11-03T16:52:47.493Z,8.25
2022-11-03T16:55:15.653Z,8.29
2022-11-03T16:57:42.489Z,8.33
2022-11-03T17:00:15.713Z,8.17
2022-11-03T17:02:42.741Z,8.15
2022-11-03T17:05:09.897Z,8.04
2022-11-03T17:07:36.754Z,7.98
2022-11-03T17:10:04.573Z,8.08
2022-11-03T17:12:31.001Z,7.83
2022-11-03T17:14:57.898Z,7.89
2022-11-03T17:17:26.125Z,8.01
2022-11-03T17:19:52.802Z,8.03
2022-11-03T17:22:21.357Z,8.09
2022-11-03T17:24:48.424Z,8.06
2022-11-03T17:27:18.788Z,8.21
2022-11-03T17:29:48.715Z,8.20
2022-11-03T17:32:24.757Z,8.13
2022-11-03T17:34:53.105Z,8.17
2022-11-03T17:37:20.369Z,8.12
2022-11-03T17:39:46.895Z,8.02
2022-11-03T17:42:18.999Z,8.04
2022-11-03T17:44:48.779Z,7.92
2022-11-03T17:47:16.992Z,7.79
2022-11-03T17:49:44.192Z,7.94
2022-11-03T17:52:16.583Z,7.89
2022-11-03T17:54:43.278Z,7.86
2022-11-03T17:57:15.983Z,7.81
2022-11-03T17:59:43.713Z,7.79
2022-11-03T18:02:15.547Z,7.86
2022-11-03T18:04:42.645Z,7.80
2022-11-03T18:07:17.745Z,7.70
2022-11-03T18:09:45.307Z,7.64
2022-11-03T18:12:33.348Z,7.72
2022-11-03T18:15:02.693Z,7.66
2022-11-03T18:17:29.993Z,7.66
2022-11-03T18:19:56.666Z,7.64
2022-11-03T18:22:33.243Z,7.50
2022-11-03T18:24:59.753Z,7.51
2022-11-03T18:27:26.411Z,7.55
2022-11-03T18:29:52.910Z,7.44
2022-11-03T18:32:19.565Z,7.51
2022-11-03T18:34:46.140Z,7.57
2022-11-03T18:37:12.913Z,7.46
2022-11-03T18:39:39.534Z,7.34
2022-11-03T18:42:12.744Z,7.29
2022-11-03T18:44:41.325Z,7.38
2022-11-03T18:47:08.126Z,7.48
2022-11-03T18:49:34.858Z,7.47
2022-11-03T18:52:04.585Z,7.47
2022-11-03T18:54:32.160Z,7.41
2022-11-03T18:56:59.127Z,7.40
2022-11-03T18:59:32.284Z,7.47
2022-11-03T19:01:59.112Z,7.46
2022-11-03T19:04:25.673Z,7.48
2022-11-03T19:06:52.789Z,7.58
2022-11-03T19:09:21.831Z,7.64
2022-11-03T19:11:49.111Z,7.60
2022-11-03T19:14:36.340Z,7.65
2022-11-03T19:17:22.532Z,7.65
2022-11-03T19:19:52.435Z,7.61
2022-11-03T19:22:20.876Z,7.54
2022-11-03T19:24:47.679Z,7.58
2022-11-03T19:27:17.800Z,7.64
2022-11-03T19:29:45.006Z,7.70
2022-11-03T19:32:32.394Z,7.72
2022-11-03T19:35:06.295Z,7.66
2022-11-03T19:37:35.843Z,7.64
2022-11-03T19:40:06.215Z,7.59
2022-11-03T19:42:37.048Z,7.62
2022-11-03T19:45:11.001Z,7.52
2022-11-03T19:47:47.957Z,7.53
2022-11-03T19:50:22.489Z,7.48
2022-11-03T19:52:51.854Z,7.50
2022-11-03T19:55:19.109Z,7.46
2022-11-03T19:57:45.659Z,7.45
2022-11-03T20:00:17.653Z,7.45
2022-11-03T20:02:45.005Z,7.44
2022-11-03T20:05:15.155Z,7.49
2022-11-03T20:07:42.461Z,7.42
2022-11-03T20:10:15.964Z,7.36
2022-11-03T20:12:42.516Z,7.36
2022-11-03T20:15:13.959Z,7.45
2022-11-03T20:17:40.570Z,7.37
2022-11-03T20:20:07.958Z,7.34
2022-11-03T20:22:34.435Z,7.29
2022-11-03T20:25:03.331Z,7.29
2022-11-03T20:27:29.991Z,7.28
2022-11-03T20:29:56.529Z,7.29
2022-11-03T20:32:23.163Z,7.31
2022-11-03T20:34:49.770Z,7.25
2022-11-03T20:37:18.827Z,7.25
2022-11-03T20:39:46.091Z,7.22
2022-11-03T20:42:23.666Z,7.21
2022-11-03T20:44:50.532Z,7.13
2022-11-03T20:47:17.858Z,7.16
2022-11-03T20:49:47.626Z,7.13
2022-11-03T20:52:14.929Z,7.05
2022-11-03T20:54:44.711Z,7.03
2022-11-03T20:57:14.282Z,7.03
2022-11-03T20:59:41.305Z,6.94
2022-11-03T21:02:12.664Z,6.90
2022-11-03T21:04:40.275Z,6.95
2022-11-03T21:07:06.814Z,6.87
2022-11-03T21:09:33.302Z,6.82
2022-11-03T21:11:59.791Z,6.76
2022-11-03T21:14:32.812Z,6.74
2022-11-03T21:17:17.813Z,6.68
2022-11-03T21:20:00.190Z,6.67
2022-11-03T21:25:19.393Z,6.63
2022-11-03T21:27:45.868Z,6.60
2022-11-03T21:30:14.208Z,6.59
2022-11-03T21:32:40.916Z,6.69
2022-11-03T21:35:08.196Z,6.66
2022-11-03T21:37:34.714Z,6.62
2022-11-03T21:40:01.130Z,6.55
2022-11-03T21:42:46.212Z,6.58
2022-11-03T21:45:13.384Z,6.62
2022-11-03T21:48:00.208Z,6.66
2022-11-03T21:50:26.737Z,6.62
2022-11-03T21:52:53.163Z,6.61
2022-11-03T21:55:19.744Z,6.62
2022-11-03T21:57:46.315Z,6.53
2022-11-03T22:00:13.370Z,6.47
2022-11-03T22:02:39.874Z,6.43
2022-11-03T22:05:10.612Z,6.45
2022-11-03T22:07:37.316Z,6.40
2022-11-03T22:10:04.122Z,6.38
2022-11-03T22:12:30.730Z,6.33
2022-11-03T22:15:15.559Z,6.26
2022-11-03T22:17:44.416Z,6.23
2022-11-03T22:20:29.602Z,6.26
2022-11-03T22:23:18.637Z,6.18
2022-11-03T22:26:03.960Z,6.24
2022-11-03T22:28:30.635Z,6.17
2022-11-03T22:31:15.599Z,6.17
2022-11-03T22:34:00.934Z,6.10
2022-11-03T22:36:29.332Z,6.16
2022-11-03T22:39:14.490Z,6.13
2022-11-03T22:42:04.990Z,6.15
2022-11-03T22:44:51.538Z,6.16
2022-11-03T22:47:18.838Z,6.13
2022-11-03T22:49:45.717Z,6.16
2022-11-03T22:52:12.127Z,6.09
2022-11-03T22:54:38.560Z,6.16
2022-11-03T22:57:05.028Z,6.15
2022-11-03T22:59:31.495Z,6.23
2022-11-03T23:01:58.055Z,6.20
2022-11-03T23:04:24.703Z,6.29
2022-11-03T23:06:51.278Z,6.22
2022-11-03T23:09:17.712Z,6.25
2022-11-03T23:11:44.267Z,6.26
2022-11-03T23:14:11.452Z,6.29
2022-11-03T23:16:40.793Z,6.30
2022-11-03T23:19:27.873Z,6.30
2022-11-03T23:21:54.416Z,6.31
2022-11-03T23:24:43.943Z,6.34
2022-11-03T23:27:12.521Z,6.34
2022-11-03T23:29:39.363Z,6.32
2022-11-03T23:32:06.165Z,6.34
2022-11-03T23:34:34.765Z,6.37
2022-11-03T23:37:01.487Z,6.41
2022-11-03T23:39:27.914Z,6.33
2022-11-03T23:41:54.480Z,6.37
2022-11-03T23:44:21.038Z,6.36
2022-11-03T23:47:05.924Z,6.40
2022-11-03T23:49:32.469Z,6.40
2022-11-03T23:51:58.937Z,6.39
2022-11-03T23:54:27.488Z,6.39
2022-11-03T23:57:12.742Z,6.37
2022-11-03T23:59:39.518Z,6.33
